ADDS METAR Data INFO
IDs: Format: Raw Decoded Include TAF

Data at: 1349 UTC 21 Nov 2017

KTME 211335Z AUTO 00000KT 8SM CLR 12/12 A2993 RMK AO2
KTME 211315Z AUTO 00000KT 9SM CLR 13/12 A2992 RMK AO2
KTME 211255Z AUTO 00000KT 10SM FEW050 12/12 A2992 RMK AO2
KTME 211235Z AUTO 00000KT 10SM SCT050 12/11 A2993 RMK AO2
KTME 211215Z AUTO 00000KT 10SM FEW060 13/12 A2993 RMK AO2
KTME 211155Z AUTO 00000KT 10SM FEW060 13/12 A2994 RMK AO2
KTME 211135Z AUTO 10003KT 10SM FEW037 SCT060 13/12 A2992 RMK AO2
KTME 211115Z AUTO 09003KT 10SM SCT037 OVC060 13/12 A2993 RMK AO2
KTME 211055Z AUTO 00000KT 10SM SCT037 OVC060 13/12 A2994 RMK AO2
KTME 211035Z AUTO 00000KT 10SM FEW039 OVC060 14/12 A2994 RMK AO2
KTME 211015Z AUTO 09003KT 10SM OVC060 14/12 A2994 RMK AO2
KTME 210955Z AUTO 10003KT 10SM OVC060 14/12 A2994 RMK AO2
KTME 210935Z AUTO 09003KT 10SM OVC060 13/12 A2994 RMK AO2
KTME 210915Z AUTO 09003KT 10SM FEW039 OVC060 13/12 A2995 RMK AO2
KTME 210855Z AUTO 09003KT 10SM OVC060 13/12 A2995 RMK AO2
KTME 210835Z AUTO 07003KT 10SM OVC060 13/12 A2996 RMK AO2
KTME 210815Z AUTO 08003KT 10SM OVC060 13/12 A2997 RMK AO2
KTME 210755Z AUTO 08004KT 10SM OVC060 13/12 A2998 RMK AO2
KTME 210735Z AUTO 07003KT 10SM OVC060 12/11 A2999 RMK AO2
KTME 210715Z AUTO 07003KT 10SM OVC060 12/10 A2999 RMK AO2
KTME 210655Z AUTO 00000KT 10SM OVC060 12/10 A3001 RMK AO2
KTME 210635Z AUTO 11003KT 10SM OVC050 12/10 A3001 RMK AO2
KTME 210615Z AUTO 09003KT 10SM OVC050 12/09 A3002 RMK AO2
KTME 210555Z AUTO 12003KT 10SM BKN050 12/09 A3002 RMK AO2
KTME 210535Z AUTO 09003KT 10SM CLR 11/09 A3003 RMK AO2
KTME 210515Z AUTO 00000KT 10SM CLR 12/09 A3003 RMK AO2
KTME 210455Z AUTO 12003KT 10SM CLR 12/09 A3003 RMK AO2
KTME 210435Z AUTO 14003KT 10SM CLR 12/09 A3004 RMK AO2
KTME 210415Z AUTO 14004KT 10SM CLR 12/10 A3004 RMK AO2
KTME 210355Z AUTO 13003KT 10SM CLR 12/10 A3005 RMK AO2
KTME 210335Z AUTO 14005KT 10SM CLR 12/10 A3005 RMK AO2
KTME 210315Z AUTO 14004KT 10SM CLR 13/10 A3005 RMK AO2
KTME 210255Z AUTO 13005KT 10SM CLR 13/10 A3005 RMK AO2
KTME 210235Z AUTO 14006KT 10SM CLR 13/10 A3006 RMK AO2
KTME 210215Z AUTO 14006KT 10SM CLR 13/10 A3006 RMK AO2
KTME 210155Z AUTO 15005KT 10SM CLR 13/10 A3006 RMK AO2
KTME 210135Z AUTO 15006KT 10SM CLR 13/10 A3007 RMK AO2
KTME 210115Z AUTO 16006KT 10SM CLR 13/09 A3007 RMK AO2
KTME 210055Z AUTO 15005KT 10SM CLR 13/09 A3007 RMK AO2
KTME 210035Z AUTO 15004KT 10SM CLR 14/09 A3007 RMK AO2
KTME 210015Z AUTO 15005KT 10SM CLR 14/09 A3007 RMK AO2
KTME 202355Z AUTO 15005KT 10SM CLR 14/09 A3006 RMK AO2
KTME 202335Z AUTO 16006KT 10SM CLR 15/09 A3006 RMK AO2
KTME 202315Z AUTO 17007KT 10SM CLR 17/09 A3007 RMK AO2
KTME 202255Z AUTO 18010KT 10SM CLR 18/09 A3006 RMK AO2
KTME 202235Z AUTO 16009G14KT 10SM CLR 19/09 A3006 RMK AO2
KTME 202215Z AUTO 17010KT 10SM CLR 20/09 A3006 RMK AO2
KTME 202155Z AUTO 18008KT 10SM CLR 20/09 A3006 RMK AO2
KTME 202135Z AUTO 16007KT 10SM CLR 21/09 A3007 RMK AO2
KTME 202115Z AUTO 17008G14KT 10SM FEW050 21/09 A3007 RMK AO2
KTME 202055Z AUTO 17011G14KT 10SM FEW050 21/09 A3008 RMK AO2
KTME 202035Z AUTO 16005KT 10SM CLR 21/08 A3009 RMK AO2
KTME 202015Z AUTO 16007KT 10SM CLR 20/08 A3010 RMK AO2
KTME 201955Z AUTO 20008KT 10SM CLR 21/08 A3012 RMK AO2
KTME 201935Z AUTO 17007KT 10SM CLR 20/08 A3013 RMK AO2
KTME 201915Z AUTO 15004KT 10SM CLR 20/07 A3014 RMK AO2
KTME 201855Z AUTO 14009KT 10SM CLR 19/07 A3016 RMK AO2
KTME 201835Z AUTO 17006KT 10SM CLR 19/06 A3018 RMK AO2
KTME 201815Z AUTO 18010KT 10SM CLR 19/06 A3019 RMK AO2
KTME 201755Z AUTO 17009KT 120V180 10SM CLR 19/05 A3021 RMK AO2
KTME 201735Z AUTO 14009KT 10SM CLR 18/05 A3022 RMK AO2
KTME 201715Z AUTO 14007KT 10SM CLR 18/05 A3023 RMK AO2
KTME 201655Z AUTO 13008KT 10SM CLR 17/04 A3024 RMK AO2
KTME 201635Z AUTO 10007KT 10SM CLR 16/03 A3025 RMK AO2
KTME 201615Z AUTO 12006KT 10SM CLR 15/04 A3025 RMK AO2
KTME 201555Z AUTO 11006KT 10SM CLR 13/05 A3025 RMK AO2
KTME 201535Z AUTO 08003KT 10SM CLR 12/06 A3025 RMK AO2
KTME 201515Z AUTO 09003KT 10SM CLR 11/07 A3025 RMK AO2
KTME 201455Z AUTO 08003KT 10SM CLR 10/07 A3024 RMK AO2
KTME 201435Z AUTO 08004KT 10SM CLR 10/06 A3024 RMK AO2
KTME 201415Z AUTO 08003KT 10SM CLR 09/06 A3024 RMK AO2
KTME 201355Z AUTO 07004KT 10SM CLR 08/06 A3023 RMK AO2
KTME 201335Z AUTO 07004KT 10SM CLR 07/05 A3023 RMK AO2
KTME 201315Z AUTO 07003KT 10SM CLR 07/05 A3022 RMK AO2
KTME 201255Z AUTO 07004KT 10SM CLR 06/05 A3022 RMK AO2
KTME 201235Z AUTO 06004KT 10SM CLR 06/05 A3022 RMK AO2
KTME 201215Z AUTO 06003KT 10SM CLR 06/05 A3022 RMK AO2
KTME 201155Z AUTO 07005KT 10SM CLR 06/05 A3021 RMK AO2
KTME 201135Z AUTO 00000KT 10SM CLR 06/04 A3021 RMK AO2
KTME 201115Z AUTO 00000KT 10SM CLR 05/04 A3021 RMK AO2
KTME 201055Z AUTO 05003KT 10SM CLR 05/04 A3021 RMK AO2
KTME 201035Z AUTO 00000KT 10SM CLR 05/04 A3022 RMK AO2
KTME 201015Z AUTO 06003KT 10SM CLR 05/03 A3022 RMK AO2
KTME 200955Z AUTO 04003KT 10SM CLR 05/03 A3022 RMK AO2
KTME 200935Z AUTO 00000KT 10SM CLR 06/04 A3023 RMK AO2
KTME 200915Z AUTO 01003KT 10SM CLR 06/04 A3023 RMK AO2
KTME 200855Z AUTO 02003KT 10SM CLR 05/04 A3022 RMK AO2
KTME 200835Z AUTO 03004KT 10SM CLR 05/04 A3023 RMK AO2
KTME 200815Z AUTO 02004KT 10SM CLR 05/04 A3023 RMK AO2
KTME 200755Z AUTO 10SM CLR 06/05 A3023 RMK AO2
KTME 200735Z AUTO 02003KT 10SM CLR 06/05 A3023 RMK AO2
KTME 200715Z AUTO 10SM CLR 07/04 A3024 RMK AO2
KTME 200655Z AUTO 00000KT 10SM CLR 07/04 A3024 RMK AO2
KTME 200635Z AUTO 00000KT 10SM CLR 07/05 A3024 RMK AO2
KTME 200615Z AUTO 00000KT 10SM CLR 07/05 A3024 RMK AO2
KTME 200555Z AUTO 00000KT 10SM CLR 07/04 A3024 RMK AO2
KTME 200535Z AUTO 00000KT 10SM CLR 08/04 A3025 RMK AO2
KTME 200515Z AUTO 00000KT 10SM CLR 08/04 A3026 RMK AO2
KTME 200455Z AUTO 00000KT 10SM CLR 09/04 A3026 RMK AO2
KTME 200435Z AUTO 00000KT 10SM CLR 08/04 A3026 RMK AO2
KTME 200415Z AUTO 05003KT 10SM CLR 08/04 A3026 RMK AO2
KTME 200355Z AUTO 04004KT 10SM CLR 07/04 A3026 RMK AO2
KTME 200335Z AUTO 06004KT 10SM CLR 07/05 A3025 RMK AO2
KTME 200315Z AUTO 03004KT 10SM FEW019 08/05 A3026 RMK AO2
KTME 200255Z AUTO 01004KT 5SM HZ SCT019 BKN025 09/05 A3026 RMK AO2
KTME 200235Z AUTO 34003KT 9SM BKN019 BKN025 09/04 A3026 RMK AO2
KTME 200215Z AUTO 34003KT 5SM HZ BKN019 BKN025 09/04 A3026 RMK AO2
KTME 200155Z AUTO 35003KT 10SM SCT020 BKN025 10/03 A3026 RMK AO2